Weather at Hong Kong International Airport

Public forecast

Using degrees Celsius for public forecast. Weather courtesy of forecast.io.

Current aviation weather report (METAR) for Hong Kong International Airport

2024/05/29 20:30 (retrieved 19 minutes ago)

VHHH 292030Z 10008KT 9999 FEW015 SCT025 25/21 Q1004 NOSIG

Aviation forecast (TAF) for Hong Kong International Airport

2024/05/29 21:14 (retrieved 0 seconds ago)

TAF VHHH 292000Z 2921/3103 10010KT 9999 FEW015 SCT025 TX31/3006Z TN25/2922Z TN26/3022Z TEMPO 3100/3103 18015G25KT 3000 SHRA FEW010CB SCT020